To NAV CANADA Home Page Login to a new session Search on AWWS site Feedback and Comments Disclaimer Vers la page française équivalente Tips FAQ What's new on the site To the Forecasts and Observations / NOTAM section To "File a Flight Plan" website Publications and other links Update of the User's profile FIC Telephone Numbers My Weather Data Folder Route Weather Data Regional Weather Data Local Weather Data To the Forecasts and Observations / NOTAM section
Request Generated 10/17/2017 at 01:40:28 UTC . Weather information available at that time is displayed.

METAR/TAF

TORONTO/BILLY BISHOP TORONTO CITY AIRPORT/ON    (show WxCam)

METAR CYTZ 170100Z AUTO 00000KT 9SM CLR 07/M01 A3026 RMK SLP250=
METAR CYTZ 170000Z AUTO 34006KT 9SM CLR 08/M02 A3025 RMK SLP248=
METAR CYTZ 162300Z AUTO 35007KT 310V030 9SM CLR 09/M03 A3025 RMK
SLP248=

TAF CYTZ 170138Z 1702/1802 VRB03KT P6SM SKC
FM170600 24008KT P6SM FEW040 SCT120
FM171400 24012G22KT P6SM SKC
BECMG 1714/1716 24018G28KT
FM172000 24018G28KT P6SM SCT040
BECMG 1723/1801 27012KT
RMK FCST BASED ON AUTO OBS. NXT FCST BY 170800Z=
Your time UTC time
Weather data provided by Environment Canada and NAV CANADA